GBYD/BJL METAR and TAF weather

Enter ICAO airport designator
Station Type Date Time Source
GBYD METAR 2022/06/26 07:00 UTC NOAA

GBYD 260700Z 27004KT 9999 SCT010 SCT100 26/25 Q1009


Station Type Date Time Source
GBYD Decoded METAR 2022/06/26 07:00 UTC NOAA

Banjul / Yundum, Gambia, The (GBYD) 13-21N 016-48W 36M
Jun 26, 2022 - 03:00 AM EDT / 2022.06.26 0700 UTC
Wind: from the W (270 degrees) at 5 MPH (4 KT):0
Visibility: greater than 7 mile(s):0
Sky conditions: partly cloudy
Temperature: 78 F (26 C)
Dew Point: 77 F (25 C)
Relative Humidity: 94%
Pressure (altimeter): 29.80 in. Hg (1009 hPa)
ob: GBYD 260700Z 27004KT 9999 SCT010 SCT100 26/25 Q1009
cycle: 7

Station Type Date Time Source
GBYD TAF 2022/06/26 06:36 UTC NOAA

TAF TAF GBYD 260500Z 2606/2712 24008KT 9999 SCT012

Example: see airport list